Accueil
METAR-TAF:

METAR-TAF

Aéroports :

Cartwright, Terre-Neuve-et-Labrador, Canada

latitude: 53-42N, longitude: 057-02W, altitude: 14 m

Observation

Le bulletin a été fait il y a 30 heures et 14 minutes, à 00:00 UTC
Vent 5 kt de sud/sud-ouest
Température 17°C
Humidité 72%
Pression 1015 hPa
Visibilité: 24.1 km
Ciel couvert à une hauteur de 3000 ft

METAR: CWCA 210000Z 20005KT 15SM OVC030 17/12 A2996 RMK SC8 VIA CYQX SLP146 DENSITY ALT 300FT

Heure: 03:44 (06:14 UTC)


TAF: absent

Observations et prévisions météorologiques de plus de 4000 aéroports (messages METAR et TAF).

Les stations disponibles sont représentées par des disques jaunes et rouges sur la carte.

Passer la souris dessus pour voir le nom de la station.

Cliquer dessus pour voir les observations et prévisions météorologiques.

Pour changer de carte: cliquez sur les boutons verts avec une croix noire pour zoomer, sur le bouton vert avec un tiret pour effectuer un zoom arrière, ou sur les flèches vertes pour les cartes adjacentes.


METAR-TAF: